Terminal Aerodrome Forecast
Issued by NWS

Home | Current Version | Previous Version | Text Only | Print | Product List | Glossary On
Versions: 1 2 3 4 5 6 7 8 9 10 11 12 13 14
066
FTUS44 KLZK 040202 AAA
TAFHRO
TAF AMD
KHRO 040202Z 0402/0424 11006KT 4SM -RA BR SCT015 BKN040 OVC060
      TEMPO 0402/0404 2SM BR BKN003
     FM040400 10005KT 2SM BR VCSH OVC007
     FM040800 06003KT 1SM BR VCSH OVC004
     FM041800 36005KT P6SM BKN008 OVC015=

USA.gov is the U.S. government's official web portal to all federal, state and local government web resources and services.